createdAt,value
2023-02-15T00:01:49.899Z,18.23
2023-02-15T00:04:20.343Z,18.40
2023-02-15T00:06:46.988Z,18.07
2023-02-15T00:09:14.258Z,17.87
2023-02-15T00:11:41.126Z,17.87
2023-02-15T00:14:10.704Z,17.90
2023-02-15T00:16:38.769Z,18.57
2023-02-15T00:19:06.120Z,18.17
2023-02-15T00:21:34.012Z,17.03
2023-02-15T00:24:02.597Z,18.83
2023-02-15T00:26:30.225Z,18.53
2023-02-15T00:28:59.482Z,18.30
2023-02-15T00:31:28.700Z,17.70
2023-02-15T00:33:56.223Z,17.97
2023-02-15T00:36:22.879Z,17.77
2023-02-15T00:38:49.648Z,18.00
2023-02-15T00:41:17.196Z,17.90
2023-02-15T00:43:43.837Z,17.13
2023-02-15T00:46:10.684Z,17.47
2023-02-15T00:48:39.956Z,17.20
2023-02-15T00:51:06.957Z,16.70
2023-02-15T00:53:33.828Z,17.47
2023-02-15T00:56:01.021Z,17.07
2023-02-15T00:58:27.889Z,17.67
2023-02-15T01:00:54.638Z,17.57
2023-02-15T01:03:23.804Z,17.70
2023-02-15T01:05:50.669Z,17.43
2023-02-15T01:08:17.489Z,18.23
2023-02-15T01:10:46.770Z,17.17
2023-02-15T01:13:14.680Z,17.60
2023-02-15T01:15:43.973Z,16.97
2023-02-15T01:18:11.692Z,17.33
2023-02-15T01:20:42.030Z,18.83
2023-02-15T01:23:09.756Z,17.00
2023-02-15T01:25:37.375Z,16.47
2023-02-15T01:28:04.493Z,16.80
2023-02-15T01:30:33.427Z,16.20
2023-02-15T01:33:01.651Z,16.30
2023-02-15T01:35:31.242Z,15.80
2023-02-15T01:37:57.902Z,16.63
2023-02-15T01:40:26.134Z,16.83
2023-02-15T01:42:54.323Z,15.70
2023-02-15T01:45:32.191Z,16.10
2023-02-15T01:48:07.205Z,15.77
2023-02-15T01:50:41.938Z,17.10
2023-02-15T01:53:33.289Z,15.73
2023-02-15T01:56:05.103Z,15.67
2023-02-15T01:58:34.777Z,15.80
2023-02-15T02:01:04.899Z,16.20
2023-02-15T02:03:50.511Z,16.10
2023-02-15T02:06:18.376Z,15.50
2023-02-15T02:08:45.627Z,15.33
2023-02-15T02:11:13.882Z,15.00
2023-02-15T02:13:42.624Z,14.23
2023-02-15T02:16:25.795Z,15.23
2023-02-15T02:19:20.977Z,14.90
2023-02-15T02:22:05.858Z,15.30
2023-02-15T02:24:48.258Z,14.57
2023-02-15T02:27:31.132Z,15.20
2023-02-15T02:30:25.355Z,15.13
2023-02-15T02:33:14.092Z,14.40
2023-02-15T02:36:03.843Z,14.23
2023-02-15T02:38:45.236Z,14.43
2023-02-15T02:41:23.675Z,14.43
2023-02-15T02:44:13.267Z,13.40
2023-02-15T02:46:39.922Z,14.07
2023-02-15T02:49:06.671Z,14.40
2023-02-15T02:51:33.451Z,13.50
2023-02-15T02:54:04.467Z,13.70
2023-02-15T02:56:48.412Z,14.73
2023-02-15T02:59:21.630Z,13.83
2023-02-15T03:01:54.235Z,13.57
2023-02-15T03:04:29.644Z,14.03
2023-02-15T03:07:03.747Z,13.33
2023-02-15T03:09:43.823Z,12.90
2023-02-15T03:12:28.288Z,12.90
2023-02-15T03:15:06.007Z,12.23
2023-02-15T03:17:34.802Z,12.17
2023-02-15T03:20:08.226Z,12.90
2023-02-15T03:22:40.424Z,12.87
2023-02-15T03:25:20.579Z,12.83
2023-02-15T03:27:52.191Z,13.40
2023-02-15T03:30:22.803Z,13.13
2023-02-15T03:32:51.836Z,13.97
2023-02-15T03:35:24.063Z,12.57
2023-02-15T03:38:02.598Z,12.90
2023-02-15T03:40:51.474Z,13.37
2023-02-15T03:43:39.879Z,12.33
2023-02-15T03:46:21.628Z,11.60
2023-02-15T03:48:54.185Z,12.43
2023-02-15T03:51:37.216Z,12.30
2023-02-15T03:54:44.881Z,11.43
2023-02-15T03:57:41.484Z,12.20
2023-02-15T04:00:41.076Z,11.97
2023-02-15T04:03:20.955Z,12.27
2023-02-15T04:05:47.641Z,12.13
2023-02-15T04:08:14.501Z,12.33
2023-02-15T04:10:53.212Z,11.93
2023-02-15T04:13:21.226Z,11.10
2023-02-15T04:16:07.046Z,12.00
2023-02-15T04:18:58.020Z,11.13
2023-02-15T04:21:45.011Z,11.23
2023-02-15T04:24:31.325Z,11.17
2023-02-15T04:26:58.999Z,11.93
2023-02-15T04:29:26.510Z,12.30
2023-02-15T04:31:55.060Z,12.50
2023-02-15T04:34:22.131Z,12.73
2023-02-15T04:36:48.844Z,11.80
2023-02-15T04:39:16.324Z,11.80
2023-02-15T04:41:43.475Z,11.27
2023-02-15T04:44:10.540Z,11.40
2023-02-15T04:46:37.923Z,11.93
2023-02-15T04:49:05.000Z,12.40
2023-02-15T04:51:31.744Z,12.40
2023-02-15T04:53:58.420Z,11.87
2023-02-15T04:56:25.230Z,11.10
2023-02-15T04:58:51.953Z,11.87
2023-02-15T05:01:18.830Z,12.30
2023-02-15T05:03:45.532Z,11.80
2023-02-15T05:06:12.220Z,12.37
2023-02-15T05:08:38.845Z,11.50
2023-02-15T05:11:05.492Z,11.60
2023-02-15T05:13:32.192Z,12.20
2023-02-15T05:15:58.949Z,12.33
2023-02-15T05:18:25.810Z,12.10
2023-02-15T05:20:52.555Z,11.97
2023-02-15T05:23:19.285Z,12.27
2023-02-15T05:26:08.785Z,12.27
2023-02-15T05:28:36.809Z,12.57
2023-02-15T05:31:08.445Z,11.97
2023-02-15T05:33:35.364Z,12.53
2023-02-15T05:36:03.337Z,12.97
2023-02-15T05:38:30.467Z,13.07
2023-02-15T05:40:57.724Z,12.53
2023-02-15T05:43:25.286Z,12.93
2023-02-15T05:45:53.903Z,13.70
2023-02-15T05:48:23.224Z,12.83
2023-02-15T05:51:04.768Z,13.00
2023-02-15T05:53:33.770Z,12.70
2023-02-15T05:56:01.624Z,13.30
2023-02-15T05:58:37.766Z,13.20
2023-02-15T06:01:18.427Z,13.60
2023-02-15T06:03:46.527Z,13.37
2023-02-15T06:06:13.527Z,13.57
2023-02-15T06:08:40.373Z,13.37
2023-02-15T06:11:07.853Z,13.03
2023-02-15T06:13:38.330Z,12.73
2023-02-15T06:16:06.589Z,13.57
2023-02-15T06:18:33.602Z,13.47
2023-02-15T06:21:00.491Z,13.40
2023-02-15T06:23:27.196Z,13.20
2023-02-15T06:25:54.260Z,13.43
2023-02-15T06:28:21.094Z,13.67
2023-02-15T06:30:47.957Z,13.43
2023-02-15T06:33:14.726Z,13.40
2023-02-15T06:35:41.489Z,12.73
2023-02-15T06:38:08.661Z,14.53
2023-02-15T06:40:35.339Z,13.27
2023-02-15T06:43:01.993Z,12.30
2023-02-15T06:45:28.760Z,13.47
2023-02-15T06:47:55.433Z,12.70
2023-02-15T06:50:22.274Z,12.10
2023-02-15T06:52:49.018Z,11.83
2023-02-15T06:55:15.810Z,12.63
2023-02-15T06:57:42.555Z,12.90
2023-02-15T07:00:09.876Z,11.70
2023-02-15T07:02:36.520Z,12.43
2023-02-15T07:05:05.102Z,12.70
2023-02-15T07:07:31.767Z,12.10
2023-02-15T07:09:58.430Z,12.97
2023-02-15T07:12:43.531Z,12.47
2023-02-15T07:15:16.150Z,13.10
2023-02-15T07:17:43.634Z,12.73
2023-02-15T07:20:12.053Z,13.10
2023-02-15T07:22:39.110Z,13.23
2023-02-15T07:25:08.220Z,13.63
2023-02-15T07:27:35.186Z,12.80
2023-02-15T07:30:02.259Z,12.07
2023-02-15T07:32:33.117Z,13.47
2023-02-15T07:35:00.815Z,13.20
2023-02-15T07:37:28.667Z,13.80
2023-02-15T07:39:55.367Z,12.10
2023-02-15T07:42:22.989Z,11.33
2023-02-15T07:44:50.010Z,12.73
2023-02-15T07:47:16.745Z,11.50
2023-02-15T07:49:43.431Z,12.37
2023-02-15T07:52:10.219Z,11.60
2023-02-15T07:54:36.849Z,11.97
2023-02-15T07:57:03.596Z,12.47
2023-02-15T07:59:30.269Z,11.50
2023-02-15T08:01:58.105Z,12.83
2023-02-15T08:04:25.104Z,11.87
2023-02-15T08:06:55.099Z,12.03
2023-02-15T08:09:22.634Z,12.53
2023-02-15T08:11:49.528Z,11.67
2023-02-15T08:14:21.335Z,12.47
2023-02-15T08:16:48.241Z,11.70
2023-02-15T08:19:25.558Z,11.80
2023-02-15T08:21:54.821Z,11.57
2023-02-15T08:24:23.892Z,11.83
2023-02-15T08:26:51.756Z,11.77
2023-02-15T08:29:21.071Z,11.77
2023-02-15T08:31:48.796Z,12.73
2023-02-15T08:34:18.570Z,11.60
2023-02-15T08:36:48.618Z,12.30
2023-02-15T08:39:16.817Z,12.37
2023-02-15T08:41:46.341Z,11.47
2023-02-15T08:44:13.679Z,12.53
2023-02-15T08:46:42.922Z,11.50
2023-02-15T08:49:11.096Z,11.73
2023-02-15T08:51:39.568Z,11.60
2023-02-15T08:54:10.276Z,12.27
2023-02-15T08:56:39.233Z,12.13
2023-02-15T08:59:07.693Z,12.37
2023-02-15T09:01:35.857Z,11.83
2023-02-15T09:04:09.589Z,12.17
2023-02-15T09:06:40.659Z,12.07
2023-02-15T09:09:08.682Z,12.13
2023-02-15T09:11:38.666Z,11.93
2023-02-15T09:14:10.006Z,11.63
2023-02-15T09:16:38.639Z,11.80
2023-02-15T09:19:06.326Z,12.03
2023-02-15T09:21:36.013Z,12.27
2023-02-15T09:24:08.969Z,12.17
2023-02-15T09:26:38.248Z,12.83
2023-02-15T09:29:05.072Z,12.63
2023-02-15T09:31:45.218Z,12.10
2023-02-15T09:34:14.332Z,12.67
2023-02-15T09:36:42.182Z,12.27
2023-02-15T09:39:13.629Z,12.80
2023-02-15T09:41:52.678Z,14.60
2023-02-15T09:44:40.673Z,12.93
2023-02-15T09:47:18.934Z,13.37
2023-02-15T09:50:20.862Z,15.17
2023-02-15T09:53:00.121Z,15.47
2023-02-15T09:55:48.724Z,15.53
2023-02-15T09:58:33.410Z,15.07
2023-02-15T10:01:22.687Z,14.33
2023-02-15T10:04:23.555Z,14.00
2023-02-15T10:07:05.267Z,14.07
2023-02-15T10:09:32.255Z,13.37
2023-02-15T10:12:30.201Z,13.83
2023-02-15T10:14:59.554Z,13.93
2023-02-15T10:17:45.233Z,13.90
2023-02-15T10:20:37.188Z,14.15
2023-02-15T10:23:12.482Z,12.95
2023-02-15T10:25:58.917Z,15.55
2023-02-15T10:28:40.846Z,16.17
2023-02-15T10:31:22.106Z,14.98
2023-02-15T10:33:56.230Z,15.43
2023-02-15T10:36:55.274Z,15.43
2023-02-15T10:39:43.712Z,15.27
2023-02-15T10:42:53.097Z,14.80
2023-02-15T10:45:41.152Z,14.77
2023-02-15T10:48:23.214Z,14.70
2023-02-15T10:50:53.652Z,14.25
2023-02-15T10:53:27.354Z,14.98
2023-02-15T10:56:08.191Z,15.52
2023-02-15T10:58:46.823Z,14.90
2023-02-15T11:01:23.599Z,14.38
2023-02-15T11:04:08.885Z,14.43
2023-02-15T11:06:40.629Z,13.98
2023-02-15T11:09:13.967Z,13.88
2023-02-15T11:11:44.650Z,13.52
2023-02-15T11:14:14.099Z,13.88
2023-02-15T11:16:47.365Z,13.50
2023-02-15T11:19:17.050Z,13.40
2023-02-15T11:21:50.774Z,13.00
2023-02-15T11:24:23.478Z,13.73
2023-02-15T11:27:13.464Z,11.48
2023-02-15T11:29:49.948Z,13.95
2023-02-15T11:32:30.712Z,13.23
2023-02-15T11:35:06.349Z,13.73
2023-02-15T11:37:54.551Z,12.95
2023-02-15T11:40:25.753Z,12.90
2023-02-15T11:42:57.003Z,13.32
2023-02-15T11:45:32.387Z,13.20
2023-02-15T11:48:00.382Z,13.10
2023-02-15T11:50:31.695Z,13.30
2023-02-15T11:53:04.690Z,14.23
2023-02-15T11:55:31.982Z,13.60
2023-02-15T11:58:05.680Z,13.98
2023-02-15T12:00:40.290Z,14.10
2023-02-15T12:03:21.417Z,14.25
2023-02-15T12:05:54.407Z,14.13
2023-02-15T12:08:22.654Z,13.38
2023-02-15T12:11:03.997Z,13.73
2023-02-15T12:13:31.138Z,13.27
2023-02-15T12:16:00.353Z,13.85
2023-02-15T12:18:45.216Z,13.63
2023-02-15T12:21:29.395Z,14.70
2023-02-15T12:24:05.048Z,14.20
2023-02-15T12:26:35.471Z,14.25
2023-02-15T12:29:13.652Z,14.57
2023-02-15T12:31:44.588Z,14.18
2023-02-15T12:34:40.542Z,14.07
2023-02-15T12:37:29.406Z,13.98
2023-02-15T12:39:58.774Z,13.35
2023-02-15T12:42:27.066Z,14.98
2023-02-15T12:44:53.835Z,13.82
2023-02-15T12:47:21.526Z,13.90
2023-02-15T12:50:12.609Z,15.10
2023-02-15T12:52:40.162Z,13.97
2023-02-15T12:55:33.055Z,14.07
2023-02-15T12:58:21.487Z,14.07
2023-02-15T13:00:48.440Z,13.33
2023-02-15T13:03:24.924Z,14.00
2023-02-15T13:05:57.675Z,13.13
2023-02-15T13:08:53.806Z,13.60
2023-02-15T13:11:25.749Z,13.07
2023-02-15T13:13:56.902Z,13.97
2023-02-15T13:16:36.427Z,13.57
2023-02-15T13:19:11.315Z,12.63
2023-02-15T13:21:41.104Z,11.97
2023-02-15T13:24:25.169Z,11.97
2023-02-15T13:27:03.513Z,12.20
2023-02-15T13:29:40.815Z,11.97
2023-02-15T13:32:26.896Z,12.57
2023-02-15T13:34:57.981Z,12.37
2023-02-15T13:37:48.117Z,12.93
2023-02-15T13:40:33.830Z,13.10
2023-02-15T13:43:03.135Z,12.83
2023-02-15T13:45:54.401Z,14.00
2023-02-15T13:48:50.849Z,13.80
2023-02-15T13:51:39.006Z,13.97
2023-02-15T13:54:30.360Z,14.77
2023-02-15T13:57:15.751Z,14.60
2023-02-15T14:00:05.630Z,13.40
2023-02-15T14:02:55.317Z,12.50
2023-02-15T14:05:23.587Z,12.43
2023-02-15T14:08:09.800Z,13.70
2023-02-15T14:11:09.342Z,13.07
2023-02-15T14:14:11.526Z,13.37
2023-02-15T14:17:16.155Z,12.03
2023-02-15T14:19:52.741Z,12.70
2023-02-15T14:22:25.997Z,12.37
2023-02-15T14:25:06.367Z,12.80
2023-02-15T14:27:53.874Z,12.73
2023-02-15T14:30:27.602Z,11.60
2023-02-15T14:33:00.680Z,12.43
2023-02-15T14:35:30.162Z,12.27
2023-02-15T14:38:13.055Z,11.90
2023-02-15T14:41:05.021Z,11.70
2023-02-15T14:43:57.069Z,11.77
2023-02-15T14:46:37.604Z,12.10
2023-02-15T14:49:15.098Z,11.43
2023-02-15T14:51:44.808Z,11.50
2023-02-15T14:54:18.281Z,11.17
2023-02-15T14:56:46.037Z,11.43
2023-02-15T14:59:12.651Z,11.20
2023-02-15T15:01:40.719Z,11.70
2023-02-15T15:04:12.758Z,10.77
2023-02-15T15:06:43.168Z,11.30
2023-02-15T15:09:43.181Z,11.00
2023-02-15T15:12:21.823Z,12.23
2023-02-15T15:14:51.723Z,11.97
2023-02-15T15:17:33.508Z,12.47
2023-02-15T15:20:08.352Z,10.90
2023-02-15T15:22:35.929Z,11.60
2023-02-15T15:25:05.698Z,12.23
2023-02-15T15:27:55.052Z,12.67
2023-02-15T15:30:21.872Z,12.63
2023-02-15T15:32:54.689Z,12.67
2023-02-15T15:35:33.389Z,12.57
2023-02-15T15:38:22.380Z,11.60
2023-02-15T15:41:16.190Z,12.00
2023-02-15T15:44:01.266Z,12.10
2023-02-15T15:46:42.954Z,11.60
2023-02-15T15:49:18.809Z,11.77
2023-02-15T15:51:46.897Z,11.23
2023-02-15T15:54:16.485Z,11.47
2023-02-15T15:56:48.059Z,11.27
2023-02-15T15:59:21.130Z,11.83
2023-02-15T16:01:48.945Z,11.73
2023-02-15T16:04:26.311Z,12.23
2023-02-15T16:06:53.441Z,12.63
2023-02-15T16:09:21.616Z,11.87
2023-02-15T16:11:51.509Z,11.87
2023-02-15T16:14:32.238Z,12.10
2023-02-15T16:17:02.002Z,11.43
2023-02-15T16:19:33.406Z,11.60
2023-02-15T16:22:02.020Z,12.20
2023-02-15T16:24:47.062Z,11.17
2023-02-15T16:27:44.545Z,11.37
2023-02-15T16:30:39.455Z,12.23
2023-02-15T16:33:15.601Z,13.83
2023-02-15T16:35:57.210Z,12.57
2023-02-15T16:38:48.358Z,12.33
2023-02-15T16:41:18.367Z,12.07
2023-02-15T16:43:48.497Z,12.90
2023-02-15T16:46:29.507Z,12.87
2023-02-15T16:49:00.033Z,12.43
2023-02-15T16:51:29.505Z,12.57
2023-02-15T16:53:58.535Z,12.30
2023-02-15T16:56:29.373Z,13.13
2023-02-15T16:58:57.473Z,14.17
2023-02-15T17:01:27.239Z,14.63
2023-02-15T17:04:13.308Z,15.43
2023-02-15T17:06:40.027Z,16.07
2023-02-15T17:09:19.260Z,16.60
2023-02-15T17:11:46.169Z,13.97
2023-02-15T17:14:18.946Z,14.83
2023-02-15T17:16:50.687Z,14.60
2023-02-15T17:19:25.742Z,16.97
2023-02-15T17:21:56.624Z,15.93
2023-02-15T17:24:33.387Z,21.53
2023-02-15T17:27:06.361Z,18.60
2023-02-15T17:29:33.770Z,21.83
2023-02-15T17:32:02.727Z,21.07
2023-02-15T17:34:51.322Z,19.60
2023-02-15T17:37:46.625Z,21.60
2023-02-15T17:40:19.195Z,20.67
2023-02-15T17:42:45.919Z,17.83
2023-02-15T17:45:15.099Z,15.47
2023-02-15T17:47:42.550Z,15.33
2023-02-15T17:50:19.490Z,15.17
2023-02-15T17:52:46.253Z,14.27
2023-02-15T17:55:37.756Z,16.00
2023-02-15T17:58:12.925Z,18.57
2023-02-15T18:01:02.438Z,22.70
2023-02-15T18:03:58.751Z,17.80
2023-02-15T18:06:44.550Z,20.40
2023-02-15T18:09:32.284Z,17.63
2023-02-15T18:11:59.036Z,17.70
2023-02-15T18:14:26.462Z,19.00
2023-02-15T18:16:54.744Z,18.93
2023-02-15T18:19:24.305Z,18.87
2023-02-15T18:21:52.829Z,17.60
2023-02-15T18:24:24.193Z,16.50
2023-02-15T18:26:51.990Z,16.57
2023-02-15T18:29:18.932Z,16.20
2023-02-15T18:31:51.326Z,17.00
2023-02-15T18:34:24.033Z,17.60
2023-02-15T18:36:51.772Z,16.60
2023-02-15T18:39:36.317Z,16.83
2023-02-15T18:42:04.848Z,16.27
2023-02-15T18:44:31.658Z,17.40
2023-02-15T18:46:58.272Z,17.60
2023-02-15T18:49:24.970Z,19.03
2023-02-15T18:51:53.131Z,19.87
2023-02-15T18:54:22.846Z,19.67
2023-02-15T18:56:55.471Z,19.63
2023-02-15T18:59:24.591Z,20.07
2023-02-15T19:01:52.301Z,19.83
2023-02-15T19:04:18.987Z,20.90
2023-02-15T19:06:49.059Z,20.23
2023-02-15T19:09:19.902Z,22.00
2023-02-15T19:11:51.736Z,26.30
2023-02-15T19:14:32.540Z,24.87
2023-02-15T19:17:00.606Z,22.23
2023-02-15T19:19:27.933Z,22.23
2023-02-15T19:21:55.394Z,26.57
2023-02-15T19:24:33.576Z,23.50
2023-02-15T19:27:00.395Z,17.73
2023-02-15T19:29:30.311Z,19.90
2023-02-15T19:31:58.102Z,21.83
2023-02-15T19:34:24.991Z,26.67
2023-02-15T19:36:54.792Z,23.13
2023-02-15T19:39:26.111Z,25.00
2023-02-15T19:41:53.232Z,24.30
2023-02-15T19:44:20.626Z,22.80
2023-02-15T19:46:47.417Z,20.30
2023-02-15T19:49:14.078Z,20.67
2023-02-15T19:51:41.146Z,22.13
2023-02-15T19:54:31.532Z,23.93
2023-02-15T19:56:58.303Z,21.50
2023-02-15T19:59:30.938Z,20.80
2023-02-15T20:01:58.212Z,20.97
2023-02-15T20:04:26.022Z,21.67
2023-02-15T20:06:55.774Z,20.57
2023-02-15T20:09:26.505Z,20.47
2023-02-15T20:11:53.728Z,21.27
2023-02-15T20:14:21.033Z,22.10
2023-02-15T20:16:47.876Z,18.97
2023-02-15T20:19:14.608Z,19.87
2023-02-15T20:21:43.818Z,16.80
2023-02-15T20:24:19.290Z,17.10
2023-02-15T20:26:46.333Z,18.17
2023-02-15T20:29:15.200Z,17.27
2023-02-15T20:31:43.096Z,17.73
2023-02-15T20:34:10.655Z,17.67
2023-02-15T20:36:38.747Z,17.70
2023-02-15T20:39:16.585Z,19.20
2023-02-15T20:41:47.730Z,19.87
2023-02-15T20:44:20.684Z,19.07
2023-02-15T20:46:49.199Z,18.60
2023-02-15T20:49:16.161Z,20.17
2023-02-15T20:51:44.368Z,19.80
2023-02-15T20:54:17.774Z,18.97
2023-02-15T20:56:45.763Z,18.97
2023-02-15T20:59:24.740Z,18.57
2023-02-15T21:01:55.428Z,19.97
2023-02-15T21:04:27.233Z,18.87
2023-02-15T21:06:53.958Z,19.23
2023-02-15T21:09:20.571Z,18.77
2023-02-15T21:11:50.252Z,18.90
2023-02-15T21:14:19.487Z,18.03
2023-02-15T21:16:48.360Z,18.20
2023-02-15T21:19:23.586Z,17.33
2023-02-15T21:21:53.225Z,18.17
2023-02-15T21:24:29.036Z,19.87
2023-02-15T21:26:58.273Z,20.30
2023-02-15T21:29:28.013Z,19.80
2023-02-15T21:31:55.200Z,20.53
2023-02-15T21:34:22.200Z,20.30
2023-02-15T21:36:50.594Z,21.27
2023-02-15T21:39:25.913Z,22.13
2023-02-15T21:42:13.207Z,22.67
2023-02-15T21:44:59.194Z,21.80
2023-02-15T21:47:49.030Z,21.47
2023-02-15T21:50:42.645Z,22.20
2023-02-15T21:53:21.172Z,20.97
2023-02-15T21:55:48.667Z,20.90
2023-02-15T21:58:21.070Z,22.03
2023-02-15T22:00:48.389Z,29.30
2023-02-15T22:03:15.206Z,22.33
2023-02-15T22:05:41.871Z,21.90
2023-02-15T22:08:13.317Z,21.80
2023-02-15T22:10:41.237Z,21.33
2023-02-15T22:13:17.235Z,21.70
2023-02-15T22:15:47.084Z,21.17
2023-02-15T22:18:33.849Z,20.30
2023-02-15T22:21:01.991Z,21.20
2023-02-15T22:23:29.080Z,19.97
2023-02-15T22:26:05.162Z,21.83
2023-02-15T22:28:34.594Z,21.20
2023-02-15T22:31:01.866Z,20.47
2023-02-15T22:33:31.643Z,19.90
2023-02-15T22:35:59.249Z,20.47
2023-02-15T22:38:26.248Z,18.97
2023-02-15T22:40:56.815Z,17.60
2023-02-15T22:43:29.413Z,17.67
2023-02-15T22:46:01.825Z,18.70
2023-02-15T22:48:28.755Z,17.57
2023-02-15T22:50:55.412Z,17.10
2023-02-15T22:53:22.650Z,17.67
2023-02-15T22:55:49.891Z,16.20
2023-02-15T22:58:20.617Z,16.77
2023-02-15T23:00:47.447Z,17.40
2023-02-15T23:03:16.833Z,18.00
2023-02-15T23:05:43.854Z,18.43
2023-02-15T23:08:11.385Z,17.13
2023-02-15T23:10:39.319Z,17.20
2023-02-15T23:13:25.970Z,17.43
2023-02-15T23:15:58.727Z,17.67
2023-02-15T23:18:29.503Z,17.37
2023-02-15T23:21:10.106Z,16.30
2023-02-15T23:23:39.981Z,17.87
2023-02-15T23:26:22.905Z,18.43
2023-02-15T23:28:50.446Z,17.80
2023-02-15T23:31:21.857Z,18.57
2023-02-15T23:33:48.986Z,17.77
2023-02-15T23:36:28.091Z,16.77
2023-02-15T23:38:56.609Z,17.10
2023-02-15T23:41:27.450Z,17.07
2023-02-15T23:43:58.137Z,16.60
2023-02-15T23:46:26.759Z,16.67
2023-02-15T23:48:54.801Z,17.43
2023-02-15T23:51:27.345Z,16.27
2023-02-15T23:53:53.987Z,18.20
2023-02-15T23:56:20.673Z,17.77
2023-02-15T23:58:48.141Z,19.50
